createdAt,value
2023-02-03T00:02:06.091Z,83.10
2023-02-03T00:07:13.233Z,82.30
2023-02-03T00:12:17.640Z,82.30
2023-02-03T00:17:24.798Z,81.70
2023-02-03T00:22:29.070Z,81.90
2023-02-03T00:27:33.627Z,84.50
2023-02-03T00:32:40.983Z,83.30
2023-02-03T00:37:44.989Z,83.00
2023-02-03T00:42:48.954Z,84.20
2023-02-03T00:47:53.023Z,83.50
2023-02-03T00:52:57.766Z,83.30
2023-02-03T00:58:03.171Z,82.90
2023-02-03T01:03:08.111Z,83.80
2023-02-03T01:08:12.376Z,85.00
2023-02-03T01:13:17.111Z,83.70
2023-02-03T01:18:23.806Z,82.90
2023-02-03T01:23:28.561Z,83.00
2023-02-03T01:28:32.665Z,82.50
2023-02-03T01:33:41.650Z,82.80
2023-02-03T01:38:46.392Z,83.10
2023-02-03T01:43:53.439Z,82.80
2023-02-03T01:49:16.644Z,82.40
2023-02-03T01:54:28.019Z,82.60
2023-02-03T01:59:34.551Z,83.00
2023-02-03T02:04:51.298Z,82.40
2023-02-03T02:09:57.783Z,82.30
2023-02-03T02:15:03.303Z,82.50
2023-02-03T02:20:38.734Z,82.00
2023-02-03T02:26:21.697Z,83.10
2023-02-03T02:31:48.134Z,83.60
2023-02-03T02:37:03.144Z,83.60
2023-02-03T02:42:35.607Z,83.60
2023-02-03T02:47:39.750Z,82.40
2023-02-03T02:52:47.314Z,82.20
2023-02-03T02:57:54.015Z,82.30
2023-02-03T03:02:58.458Z,82.30
2023-02-03T03:08:06.114Z,83.10
2023-02-03T03:13:15.007Z,84.60
2023-02-03T03:18:29.971Z,83.40
2023-02-03T03:23:39.996Z,84.00
2023-02-03T03:28:52.617Z,87.20
2023-02-03T03:33:56.641Z,86.20
2023-02-03T03:39:36.234Z,86.40
2023-02-03T03:44:46.672Z,85.90
2023-02-03T03:49:54.408Z,85.30
2023-02-03T03:55:00.390Z,85.40
2023-02-03T04:00:09.882Z,84.80
2023-02-03T04:05:17.144Z,85.20
2023-02-03T04:10:36.696Z,86.10
2023-02-03T04:15:43.370Z,84.80
2023-02-03T04:20:48.070Z,85.50
2023-02-03T04:25:52.787Z,84.90
2023-02-03T04:31:00.719Z,84.50
2023-02-03T04:36:05.296Z,84.00
2023-02-03T04:41:10.348Z,83.70
2023-02-03T04:46:14.358Z,83.80
2023-02-03T04:51:18.550Z,83.40
2023-02-03T04:56:22.482Z,83.50
2023-02-03T05:01:26.790Z,83.40
2023-02-03T05:06:33.116Z,83.70
2023-02-03T05:11:37.521Z,83.80
2023-02-03T05:16:42.498Z,84.10
2023-02-03T05:21:45.975Z,84.30
2023-02-03T05:26:51.066Z,84.50
2023-02-03T05:31:55.887Z,84.30
2023-02-03T05:37:01.253Z,85.90
2023-02-03T05:42:05.615Z,86.30
2023-02-03T05:47:09.953Z,86.10
2023-02-03T05:52:14.759Z,85.50
2023-02-03T05:57:19.593Z,85.20
2023-02-03T06:02:23.834Z,85.10
2023-02-03T06:07:28.128Z,84.50
2023-02-03T06:12:32.249Z,85.10
2023-02-03T06:17:36.341Z,85.50
2023-02-03T06:22:41.031Z,85.00
2023-02-03T06:27:50.288Z,85.50
2023-02-03T06:32:56.229Z,85.60
2023-02-03T06:38:00.957Z,85.00
2023-02-03T06:43:06.048Z,84.80
2023-02-03T06:48:10.683Z,84.50
2023-02-03T06:53:15.075Z,84.90
2023-02-03T06:58:20.054Z,85.10
2023-02-03T07:03:24.302Z,85.20
2023-02-03T07:08:28.098Z,84.90
2023-02-03T07:13:33.425Z,84.80
2023-02-03T07:18:47.419Z,84.60
2023-02-03T07:23:55.302Z,84.80
2023-02-03T07:29:01.043Z,84.70
2023-02-03T07:34:06.613Z,84.30
2023-02-03T07:39:10.561Z,84.60
2023-02-03T07:44:15.620Z,84.60
2023-02-03T07:49:19.515Z,84.40
2023-02-03T07:54:23.779Z,84.10
2023-02-03T07:59:28.060Z,84.10
2023-02-03T08:04:32.448Z,84.40
2023-02-03T08:09:36.831Z,84.30
2023-02-03T08:14:41.027Z,84.30
2023-02-03T08:19:46.445Z,83.90
2023-02-03T08:24:51.336Z,84.00
2023-02-03T08:29:55.523Z,83.90
2023-02-03T08:35:00.318Z,83.70
2023-02-03T08:40:06.175Z,83.80
2023-02-03T08:45:10.895Z,83.90
2023-02-03T08:50:15.042Z,83.70
2023-02-03T08:55:19.547Z,83.40
2023-02-03T09:00:23.576Z,83.40
2023-02-03T09:05:27.819Z,83.40
2023-02-03T09:10:31.701Z,83.30
2023-02-03T09:15:36.073Z,83.40
2023-02-03T09:20:40.149Z,83.30
2023-02-03T09:25:47.842Z,82.40
2023-02-03T09:30:53.234Z,82.30
2023-02-03T09:35:58.736Z,82.30
2023-02-03T09:41:57.379Z,81.80
2023-02-03T09:47:11.630Z,81.60
2023-02-03T09:52:23.644Z,80.90
2023-02-03T09:57:30.078Z,80.20
2023-02-03T10:02:53.045Z,79.80
2023-02-03T10:08:15.348Z,79.10
2023-02-03T10:13:36.663Z,78.60
2023-02-03T10:18:48.190Z,77.50
2023-02-03T10:23:55.334Z,76.80
2023-02-03T10:29:06.204Z,76.50
2023-02-03T10:34:13.039Z,76.30
2023-02-03T10:39:40.342Z,76.40
2023-02-03T10:44:56.228Z,75.40
2023-02-03T10:50:08.207Z,74.00
2023-02-03T10:55:27.121Z,73.30
2023-02-03T11:00:35.188Z,72.30
2023-02-03T11:05:41.489Z,72.50
2023-02-03T11:10:48.765Z,72.80
2023-02-03T11:16:01.420Z,72.40
2023-02-03T11:21:17.838Z,72.00
2023-02-03T11:26:53.703Z,71.30
2023-02-03T11:32:00.981Z,71.20
2023-02-03T11:37:46.003Z,71.30
2023-02-03T11:42:49.719Z,71.00
2023-02-03T11:47:54.386Z,70.40
2023-02-03T11:53:23.672Z,70.20
2023-02-03T11:58:47.672Z,70.40
2023-02-03T12:04:09.979Z,70.30
2023-02-03T12:09:37.572Z,69.30
2023-02-03T12:15:03.330Z,69.70
2023-02-03T12:20:30.119Z,70.40
2023-02-03T12:25:47.177Z,70.20
2023-02-03T12:30:57.364Z,70.80
2023-02-03T12:36:16.306Z,70.80
2023-02-03T12:41:38.780Z,71.20
2023-02-03T12:46:58.456Z,71.20
2023-02-03T12:52:26.896Z,70.90
2023-02-03T12:58:00.324Z,69.90
2023-02-03T13:03:34.768Z,69.50
2023-02-03T13:09:04.157Z,68.90
2023-02-03T13:14:16.922Z,66.50
2023-02-03T13:19:28.470Z,66.20
2023-02-03T13:24:32.760Z,64.00
2023-02-03T13:30:16.349Z,62.00
2023-02-03T13:35:45.340Z,59.00
2023-02-03T13:41:05.358Z,58.50
2023-02-03T13:46:34.839Z,59.20
2023-02-03T13:51:46.578Z,57.90
2023-02-03T13:57:02.536Z,58.20
2023-02-03T14:02:24.783Z,56.70
2023-02-03T14:07:39.158Z,55.00
2023-02-03T14:12:57.720Z,55.80
2023-02-03T14:18:07.929Z,56.00
2023-02-03T14:23:17.938Z,58.10
2023-02-03T14:28:40.350Z,59.40
2023-02-03T14:34:09.334Z,60.20
2023-02-03T14:39:19.035Z,59.70
2023-02-03T14:44:41.725Z,60.40
2023-02-03T14:49:56.830Z,61.10
2023-02-03T14:55:19.819Z,61.00
2023-02-03T15:00:34.011Z,61.80
2023-02-03T15:05:41.403Z,62.80
2023-02-03T15:10:46.163Z,63.80
2023-02-03T15:15:53.891Z,64.50
2023-02-03T15:20:58.635Z,65.60
2023-02-03T15:26:34.472Z,66.20
2023-02-03T15:31:49.155Z,66.20
2023-02-03T15:36:57.365Z,67.60
2023-02-03T15:42:02.807Z,69.10
2023-02-03T15:47:16.909Z,69.80
2023-02-03T15:52:25.719Z,70.60
2023-02-03T15:57:34.251Z,70.50
2023-02-03T16:02:44.065Z,70.30
